sensor_id;sensor_type;location;lat;lon;timestamp;P1;durP1;ratioP1;P2;durP2;ratioP2
57615;SDS011;43816;52.054;-9.494;2023-06-22T00:00:05;2.20;;;2.10;;
57615;SDS011;43816;52.054;-9.494;2023-06-22T00:00:16;2.17;;;2.05;;
57615;SDS011;43816;52.054;-9.494;2023-06-22T00:00:27;2.33;;;2.13;;
57615;SDS011;43816;52.054;-9.494;2023-06-22T00:00:38;2.38;;;2.17;;
57615;SDS011;43816;52.054;-9.494;2023-06-22T00:00:48;2.30;;;2.17;;
57615;SDS011;43816;52.054;-9.494;2023-06-22T00:00:59;2.10;;;2.00;;
57615;SDS011;43816;52.054;-9.494;2023-06-22T00:01:09;2.00;;;1.90;;
57615;SDS011;43816;52.054;-9.494;2023-06-22T00:01:20;2.07;;;1.97;;
57615;SDS011;43816;52.054;-9.494;2023-06-22T00:01:30;2.28;;;2.08;;
57615;SDS011;43816;52.054;-9.494;2023-06-22T00:01:41;2.30;;;2.10;;
57615;SDS011;43816;52.054;-9.494;2023-06-22T00:01:51;2.15;;;1.95;;
57615;SDS011;43816;52.054;-9.494;2023-06-22T00:02:01;1.93;;;1.83;;
57615;SDS011;43816;52.054;-9.494;2023-06-22T00:02:12;2.00;;;1.90;;
57615;SDS011;43816;52.054;-9.494;2023-06-22T00:02:22;2.10;;;2.00;;
57615;SDS011;43816;52.054;-9.494;2023-06-22T00:02:32;2.20;;;2.10;;
57615;SDS011;43816;52.054;-9.494;2023-06-22T00:02:43;2.20;;;2.10;;
57615;SDS011;43816;52.054;-9.494;2023-06-22T00:02:53;2.20;;;2.10;;
57615;SDS011;43816;52.054;-9.494;2023-06-22T00:03:03;2.20;;;2.10;;
57615;SDS011;43816;52.054;-9.494;2023-06-22T00:03:13;2.33;;;2.13;;
57615;SDS011;43816;52.054;-9.494;2023-06-22T00:03:24;2.35;;;2.15;;
57615;SDS011;43816;52.054;-9.494;2023-06-22T00:03:35;2.50;;;2.30;;
57615;SDS011;43816;52.054;-9.494;2023-06-22T00:03:45;2.20;;;2.10;;
57615;SDS011;43816;52.054;-9.494;2023-06-22T00:03:56;2.30;;;2.10;;
57615;SDS011;43816;52.054;-9.494;2023-06-22T00:04:06;2.43;;;2.10;;
57615;SDS011;43816;52.054;-9.494;2023-06-22T00:04:16;2.63;;;2.10;;
57615;SDS011;43816;52.054;-9.494;2023-06-22T00:04:27;2.23;;;2.03;;
57615;SDS011;43816;52.054;-9.494;2023-06-22T00:04:37;2.10;;;2.00;;
57615;SDS011;43816;52.054;-9.494;2023-06-22T00:04:47;2.23;;;2.10;;
57615;SDS011;43816;52.054;-9.494;2023-06-22T00:04:57;2.30;;;2.10;;
57615;SDS011;43816;52.054;-9.494;2023-06-22T00:05:08;2.20;;;2.10;;
57615;SDS011;43816;52.054;-9.494;2023-06-22T00:05:18;2.30;;;2.20;;
57615;SDS011;43816;52.054;-9.494;2023-06-22T00:05:28;2.30;;;2.20;;
57615;SDS011;43816;52.054;-9.494;2023-06-22T00:05:39;2.30;;;2.20;;
57615;SDS011;43816;52.054;-9.494;2023-06-22T00:05:49;2.10;;;2.00;;
57615;SDS011;43816;52.054;-9.494;2023-06-22T00:06:00;1.95;;;1.85;;
57615;SDS011;43816;52.054;-9.494;2023-06-22T00:06:10;2.00;;;1.90;;
57615;SDS011;43816;52.054;-9.494;2023-06-22T00:06:21;2.10;;;2.00;;
57615;SDS011;43816;52.054;-9.494;2023-06-22T00:06:31;2.10;;;2.00;;
57615;SDS011;43816;52.054;-9.494;2023-06-22T00:06:41;2.00;;;1.90;;
57615;SDS011;43816;52.054;-9.494;2023-06-22T00:06:52;2.10;;;2.00;;
57615;SDS011;43816;52.054;-9.494;2023-06-22T00:07:02;2.20;;;2.00;;
57615;SDS011;43816;52.054;-9.494;2023-06-22T00:07:12;2.13;;;1.93;;
57615;SDS011;43816;52.054;-9.494;2023-06-22T00:07:23;2.05;;;1.85;;
57615;SDS011;43816;52.054;-9.494;2023-06-22T00:07:33;2.07;;;1.97;;
57615;SDS011;43816;52.054;-9.494;2023-06-22T00:07:43;2.10;;;2.00;;
57615;SDS011;43816;52.054;-9.494;2023-06-22T00:07:53;2.20;;;2.10;;
57615;SDS011;43816;52.054;-9.494;2023-06-22T00:08:04;2.20;;;2.03;;
57615;SDS011;43816;52.054;-9.494;2023-06-22T00:08:15;2.40;;;2.20;;
57615;SDS011;43816;52.054;-9.494;2023-06-22T00:08:26;2.30;;;2.10;;
57615;SDS011;43816;52.054;-9.494;2023-06-22T00:08:36;2.10;;;2.00;;
57615;SDS011;43816;52.054;-9.494;2023-06-22T00:08:46;2.03;;;1.92;;
57615;SDS011;43816;52.054;-9.494;2023-06-22T00:08:57;2.00;;;1.90;;
57615;SDS011;43816;52.054;-9.494;2023-06-22T00:09:07;2.05;;;1.95;;
57615;SDS011;43816;52.054;-9.494;2023-06-22T00:09:18;2.10;;;1.90;;
57615;SDS011;43816;52.054;-9.494;2023-06-22T00:09:28;2.20;;;2.00;;
57615;SDS011;43816;52.054;-9.494;2023-06-22T00:09:38;2.28;;;2.08;;
57615;SDS011;43816;52.054;-9.494;2023-06-22T00:09:48;2.20;;;2.00;;
57615;SDS011;43816;52.054;-9.494;2023-06-22T00:09:59;2.20;;;2.03;;
57615;SDS011;43816;52.054;-9.494;2023-06-22T00:10:09;2.13;;;2.00;;
57615;SDS011;43816;52.054;-9.494;2023-06-22T00:10:19;2.30;;;2.10;;
57615;SDS011;43816;52.054;-9.494;2023-06-22T00:10:30;2.27;;;2.07;;
57615;SDS011;43816;52.054;-9.494;2023-06-22T00:10:41;2.13;;;2.00;;
57615;SDS011;43816;52.054;-9.494;2023-06-22T00:10:52;2.10;;;2.00;;
57615;SDS011;43816;52.054;-9.494;2023-06-22T00:11:02;2.08;;;1.98;;
57615;SDS011;43816;52.054;-9.494;2023-06-22T00:11:12;2.07;;;1.97;;
57615;SDS011;43816;52.054;-9.494;2023-06-22T00:11:23;1.93;;;1.83;;
57615;SDS011;43816;52.054;-9.494;2023-06-22T00:11:33;1.88;;;1.77;;
57615;SDS011;43816;52.054;-9.494;2023-06-22T00:11:44;2.47;;;1.80;;
57615;SDS011;43816;52.054;-9.494;2023-06-22T00:11:54;2.27;;;1.97;;
57615;SDS011;43816;52.054;-9.494;2023-06-22T00:12:04;2.40;;;2.00;;
57615;SDS011;43816;52.054;-9.494;2023-06-22T00:12:15;2.05;;;1.95;;
57615;SDS011;43816;52.054;-9.494;2023-06-22T00:12:25;2.00;;;1.90;;
57615;SDS011;43816;52.054;-9.494;2023-06-22T00:12:35;2.10;;;2.00;;
57615;SDS011;43816;52.054;-9.494;2023-06-22T00:12:46;2.10;;;2.00;;
57615;SDS011;43816;52.054;-9.494;2023-06-22T00:12:56;2.10;;;2.00;;
57615;SDS011;43816;52.054;-9.494;2023-06-22T00:13:07;2.10;;;2.00;;
57615;SDS011;43816;52.054;-9.494;2023-06-22T00:13:18;2.25;;;2.05;;
57615;SDS011;43816;52.054;-9.494;2023-06-22T00:13:28;2.20;;;2.00;;
57615;SDS011;43816;52.054;-9.494;2023-06-22T00:13:39;2.10;;;1.95;;
57615;SDS011;43816;52.054;-9.494;2023-06-22T00:13:49;2.00;;;1.90;;
57615;SDS011;43816;52.054;-9.494;2023-06-22T00:13:59;2.20;;;2.00;;
57615;SDS011;43816;52.054;-9.494;2023-06-22T00:14:10;2.10;;;2.00;;
57615;SDS011;43816;52.054;-9.494;2023-06-22T00:14:20;2.20;;;2.10;;
57615;SDS011;43816;52.054;-9.494;2023-06-22T00:14:30;2.00;;;1.90;;
57615;SDS011;43816;52.054;-9.494;2023-06-22T00:14:41;2.03;;;1.92;;
57615;SDS011;43816;52.054;-9.494;2023-06-22T00:14:51;2.00;;;1.90;;
57615;SDS011;43816;52.054;-9.494;2023-06-22T00:15:01;2.00;;;1.90;;
57615;SDS011;43816;52.054;-9.494;2023-06-22T00:15:12;1.95;;;1.85;;
57615;SDS011;43816;52.054;-9.494;2023-06-22T00:15:22;2.00;;;1.90;;
57615;SDS011;43816;52.054;-9.494;2023-06-22T00:15:33;2.05;;;1.95;;
57615;SDS011;43816;52.054;-9.494;2023-06-22T00:15:44;2.00;;;1.90;;
57615;SDS011;43816;52.054;-9.494;2023-06-22T00:15:54;2.10;;;2.00;;
57615;SDS011;43816;52.054;-9.494;2023-06-22T00:16:04;2.00;;;1.90;;
57615;SDS011;43816;52.054;-9.494;2023-06-22T00:16:15;2.03;;;1.92;;
57615;SDS011;43816;52.054;-9.494;2023-06-22T00:16:25;2.00;;;1.90;;
57615;SDS011;43816;52.054;-9.494;2023-06-22T00:16:35;2.10;;;2.00;;
57615;SDS011;43816;52.054;-9.494;2023-06-22T00:16:46;2.10;;;2.00;;
57615;SDS011;43816;52.054;-9.494;2023-06-22T00:16:56;2.10;;;2.00;;
57615;SDS011;43816;52.054;-9.494;2023-06-22T00:17:06;2.10;;;2.00;;
57615;SDS011;43816;52.054;-9.494;2023-06-22T00:17:17;2.30;;;2.10;;
57615;SDS011;43816;52.054;-9.494;2023-06-22T00:17:27;2.23;;;2.03;;
57615;SDS011;43816;52.054;-9.494;2023-06-22T00:17:37;1.93;;;1.83;;
57615;SDS011;43816;52.054;-9.494;2023-06-22T00:17:48;2.00;;;1.90;;
57615;SDS011;43816;52.054;-9.494;2023-06-22T00:17:59;2.00;;;1.90;;
57615;SDS011;43816;52.054;-9.494;2023-06-22T00:18:10;2.00;;;1.90;;
57615;SDS011;43816;52.054;-9.494;2023-06-22T00:18:20;1.90;;;1.80;;
57615;SDS011;43816;52.054;-9.494;2023-06-22T00:18:30;1.90;;;1.80;;
57615;SDS011;43816;52.054;-9.494;2023-06-22T00:18:41;1.93;;;1.83;;
57615;SDS011;43816;52.054;-9.494;2023-06-22T00:18:51;2.00;;;1.90;;
57615;SDS011;43816;52.054;-9.494;2023-06-22T00:19:01;2.25;;;2.13;;
57615;SDS011;43816;52.054;-9.494;2023-06-22T00:19:12;2.37;;;2.17;;
57615;SDS011;43816;52.054;-9.494;2023-06-22T00:19:25;2.50;;;2.30;;
57615;SDS011;43816;52.054;-9.494;2023-06-22T00:19:35;2.10;;;2.00;;
57615;SDS011;43816;52.054;-9.494;2023-06-22T00:19:49;1.97;;;1.87;;
57615;SDS011;43816;52.054;-9.494;2023-06-22T00:19:59;2.08;;;1.92;;
57615;SDS011;43816;52.054;-9.494;2023-06-22T00:20:09;2.28;;;2.08;;
57615;SDS011;43816;52.054;-9.494;2023-06-22T00:20:20;2.13;;;2.03;;
57615;SDS011;43816;52.054;-9.494;2023-06-22T00:20:30;2.17;;;2.07;;
57615;SDS011;43816;52.054;-9.494;2023-06-22T00:20:41;2.17;;;2.07;;
57615;SDS011;43816;52.054;-9.494;2023-06-22T00:20:52;2.28;;;2.17;;
57615;SDS011;43816;52.054;-9.494;2023-06-22T00:21:02;2.10;;;2.00;;
57615;SDS011;43816;52.054;-9.494;2023-06-22T00:21:12;2.00;;;1.90;;
57615;SDS011;43816;52.054;-9.494;2023-06-22T00:21:23;1.93;;;1.80;;
57615;SDS011;43816;52.054;-9.494;2023-06-22T00:21:33;2.05;;;1.85;;
57615;SDS011;43816;52.054;-9.494;2023-06-22T00:21:43;2.20;;;1.80;;
57615;SDS011;43816;52.054;-9.494;2023-06-22T00:21:54;2.63;;;1.83;;
57615;SDS011;43816;52.054;-9.494;2023-06-22T00:22:04;2.67;;;1.90;;
57615;SDS011;43816;52.054;-9.494;2023-06-22T00:22:14;2.20;;;1.93;;
57615;SDS011;43816;52.054;-9.494;2023-06-22T00:22:25;1.93;;;1.83;;
57615;SDS011;43816;52.054;-9.494;2023-06-22T00:22:35;2.00;;;1.90;;
57615;SDS011;43816;52.054;-9.494;2023-06-22T00:22:45;2.00;;;1.90;;
57615;SDS011;43816;52.054;-9.494;2023-06-22T00:22:56;2.00;;;1.90;;
57615;SDS011;43816;52.054;-9.494;2023-06-22T00:23:07;2.17;;;2.00;;
57615;SDS011;43816;52.054;-9.494;2023-06-22T00:23:18;2.20;;;2.00;;
57615;SDS011;43816;52.054;-9.494;2023-06-22T00:23:28;2.15;;;1.95;;
57615;SDS011;43816;52.054;-9.494;2023-06-22T00:23:38;1.90;;;1.80;;
57615;SDS011;43816;52.054;-9.494;2023-06-22T00:23:49;2.00;;;1.90;;
57615;SDS011;43816;52.054;-9.494;2023-06-22T00:23:59;2.00;;;1.90;;
57615;SDS011;43816;52.054;-9.494;2023-06-22T00:24:09;2.10;;;2.00;;
57615;SDS011;43816;52.054;-9.494;2023-06-22T00:24:20;2.10;;;2.00;;
57615;SDS011;43816;52.054;-9.494;2023-06-22T00:24:30;2.08;;;1.98;;
57615;SDS011;43816;52.054;-9.494;2023-06-22T00:24:41;2.20;;;2.10;;
57615;SDS011;43816;52.054;-9.494;2023-06-22T00:24:51;2.00;;;1.90;;
57615;SDS011;43816;52.054;-9.494;2023-06-22T00:25:01;1.90;;;1.80;;
57615;SDS011;43816;52.054;-9.494;2023-06-22T00:25:12;1.87;;;1.77;;
57615;SDS011;43816;52.054;-9.494;2023-06-22T00:25:22;1.90;;;1.80;;
57615;SDS011;43816;52.054;-9.494;2023-06-22T00:25:32;2.10;;;2.00;;
57615;SDS011;43816;52.054;-9.494;2023-06-22T00:25:42;2.13;;;2.00;;
57615;SDS011;43816;52.054;-9.494;2023-06-22T00:25:53;2.30;;;2.10;;
57615;SDS011;43816;52.054;-9.494;2023-06-22T00:26:03;2.10;;;2.00;;
57615;SDS011;43816;52.054;-9.494;2023-06-22T00:26:13;1.90;;;1.80;;
57615;SDS011;43816;52.054;-9.494;2023-06-22T00:26:24;1.88;;;1.77;;
57615;SDS011;43816;52.054;-9.494;2023-06-22T00:26:34;1.90;;;1.80;;
57615;SDS011;43816;52.054;-9.494;2023-06-22T00:26:44;1.90;;;1.80;;
57615;SDS011;43816;52.054;-9.494;2023-06-22T00:26:55;1.80;;;1.70;;
57615;SDS011;43816;52.054;-9.494;2023-06-22T00:27:05;1.87;;;1.77;;
57615;SDS011;43816;52.054;-9.494;2023-06-22T00:27:16;2.00;;;1.90;;
57615;SDS011;43816;52.054;-9.494;2023-06-22T00:27:26;2.10;;;2.00;;
57615;SDS011;43816;52.054;-9.494;2023-06-22T00:27:36;2.00;;;1.90;;
57615;SDS011;43816;52.054;-9.494;2023-06-22T00:27:47;2.00;;;1.90;;
57615;SDS011;43816;52.054;-9.494;2023-06-22T00:27:57;1.90;;;1.80;;
57615;SDS011;43816;52.054;-9.494;2023-06-22T00:28:08;1.90;;;1.77;;
57615;SDS011;43816;52.054;-9.494;2023-06-22T00:28:18;2.00;;;1.80;;
57615;SDS011;43816;52.054;-9.494;2023-06-22T00:28:28;2.00;;;1.90;;
57615;SDS011;43816;52.054;-9.494;2023-06-22T00:28:39;2.00;;;1.90;;
57615;SDS011;43816;52.054;-9.494;2023-06-22T00:28:49;1.93;;;1.83;;
57615;SDS011;43816;52.054;-9.494;2023-06-22T00:29:00;2.03;;;1.92;;
57615;SDS011;43816;52.054;-9.494;2023-06-22T00:29:10;2.20;;;2.00;;
57615;SDS011;43816;52.054;-9.494;2023-06-22T00:29:20;2.27;;;2.07;;
57615;SDS011;43816;52.054;-9.494;2023-06-22T00:29:31;2.20;;;2.00;;
57615;SDS011;43816;52.054;-9.494;2023-06-22T00:29:41;2.00;;;1.90;;
57615;SDS011;43816;52.054;-9.494;2023-06-22T00:29:51;2.07;;;1.87;;
57615;SDS011;43816;52.054;-9.494;2023-06-22T00:30:02;2.00;;;1.80;;
57615;SDS011;43816;52.054;-9.494;2023-06-22T00:30:13;2.10;;;1.90;;
57615;SDS011;43816;52.054;-9.494;2023-06-22T00:30:25;2.20;;;2.00;;
57615;SDS011;43816;52.054;-9.494;2023-06-22T00:30:35;2.30;;;2.10;;
57615;SDS011;43816;52.054;-9.494;2023-06-22T00:30:46;2.20;;;2.00;;
57615;SDS011;43816;52.054;-9.494;2023-06-22T00:30:56;2.17;;;2.00;;
57615;SDS011;43816;52.054;-9.494;2023-06-22T00:31:06;1.90;;;1.80;;
57615;SDS011;43816;52.054;-9.494;2023-06-22T00:31:17;1.87;;;1.77;;
57615;SDS011;43816;52.054;-9.494;2023-06-22T00:31:27;1.90;;;1.80;;
57615;SDS011;43816;52.054;-9.494;2023-06-22T00:31:37;2.10;;;2.00;;
57615;SDS011;43816;52.054;-9.494;2023-06-22T00:31:48;2.20;;;2.00;;
57615;SDS011;43816;52.054;-9.494;2023-06-22T00:31:58;2.10;;;1.90;;
57615;SDS011;43816;52.054;-9.494;2023-06-22T00:32:08;1.92;;;1.80;;
57615;SDS011;43816;52.054;-9.494;2023-06-22T00:32:18;1.90;;;1.80;;
57615;SDS011;43816;52.054;-9.494;2023-06-22T00:32:29;2.00;;;1.90;;
57615;SDS011;43816;52.054;-9.494;2023-06-22T00:32:39;1.90;;;1.80;;
57615;SDS011;43816;52.054;-9.494;2023-06-22T00:32:49;2.00;;;1.90;;
57615;SDS011;43816;52.054;-9.494;2023-06-22T00:33:00;2.10;;;2.00;;
57615;SDS011;43816;52.054;-9.494;2023-06-22T00:33:10;2.20;;;2.10;;
57615;SDS011;43816;52.054;-9.494;2023-06-22T00:33:21;2.27;;;2.17;;
57615;SDS011;43816;52.054;-9.494;2023-06-22T00:33:31;2.20;;;2.10;;
57615;SDS011;43816;52.054;-9.494;2023-06-22T00:33:41;2.20;;;2.10;;
57615;SDS011;43816;52.054;-9.494;2023-06-22T00:33:51;2.07;;;1.97;;
57615;SDS011;43816;52.054;-9.494;2023-06-22T00:34:02;2.00;;;1.90;;
57615;SDS011;43816;52.054;-9.494;2023-06-22T00:34:12;2.00;;;1.90;;
57615;SDS011;43816;52.054;-9.494;2023-06-22T00:34:22;2.00;;;1.90;;
57615;SDS011;43816;52.054;-9.494;2023-06-22T00:34:33;2.07;;;1.97;;
57615;SDS011;43816;52.054;-9.494;2023-06-22T00:34:43;1.90;;;1.80;;
57615;SDS011;43816;52.054;-9.494;2023-06-22T00:34:53;1.90;;;1.80;;
57615;SDS011;43816;52.054;-9.494;2023-06-22T00:35:05;1.90;;;1.80;;
57615;SDS011;43816;52.054;-9.494;2023-06-22T00:35:15;1.90;;;1.80;;
57615;SDS011;43816;52.054;-9.494;2023-06-22T00:35:26;1.90;;;1.80;;
57615;SDS011;43816;52.054;-9.494;2023-06-22T00:35:37;1.90;;;1.80;;
57615;SDS011;43816;52.054;-9.494;2023-06-22T00:35:47;1.90;;;1.80;;
57615;SDS011;43816;52.054;-9.494;2023-06-22T00:35:58;2.00;;;1.90;;
57615;SDS011;43816;52.054;-9.494;2023-06-22T00:36:08;2.10;;;2.00;;
57615;SDS011;43816;52.054;-9.494;2023-06-22T00:36:18;2.27;;;2.10;;
57615;SDS011;43816;52.054;-9.494;2023-06-22T00:36:28;2.20;;;2.03;;
57615;SDS011;43816;52.054;-9.494;2023-06-22T00:36:39;2.08;;;1.98;;
57615;SDS011;43816;52.054;-9.494;2023-06-22T00:36:49;1.97;;;1.87;;
57615;SDS011;43816;52.054;-9.494;2023-06-22T00:36:59;2.00;;;1.90;;
57615;SDS011;43816;52.054;-9.494;2023-06-22T00:37:10;1.88;;;1.77;;
57615;SDS011;43816;52.054;-9.494;2023-06-22T00:37:20;1.87;;;1.77;;
57615;SDS011;43816;52.054;-9.494;2023-06-22T00:37:30;1.80;;;1.70;;
57615;SDS011;43816;52.054;-9.494;2023-06-22T00:37:41;1.88;;;1.77;;
57615;SDS011;43816;52.054;-9.494;2023-06-22T00:37:51;1.97;;;1.87;;
57615;SDS011;43816;52.054;-9.494;2023-06-22T00:38:01;2.07;;;1.97;;
57615;SDS011;43816;52.054;-9.494;2023-06-22T00:38:11;1.90;;;1.80;;
57615;SDS011;43816;52.054;-9.494;2023-06-22T00:38:22;1.83;;;1.73;;
57615;SDS011;43816;52.054;-9.494;2023-06-22T00:38:32;1.80;;;1.70;;
57615;SDS011;43816;52.054;-9.494;2023-06-22T00:38:43;1.90;;;1.80;;
57615;SDS011;43816;52.054;-9.494;2023-06-22T00:38:53;1.90;;;1.80;;
57615;SDS011;43816;52.054;-9.494;2023-06-22T00:39:03;1.90;;;1.80;;
57615;SDS011;43816;52.054;-9.494;2023-06-22T00:39:14;1.80;;;1.70;;
57615;SDS011;43816;52.054;-9.494;2023-06-22T00:39:24;1.90;;;1.80;;
57615;SDS011;43816;52.054;-9.494;2023-06-22T00:39:34;1.90;;;1.80;;
57615;SDS011;43816;52.054;-9.494;2023-06-22T00:39:45;2.13;;;1.95;;
57615;SDS011;43816;52.054;-9.494;2023-06-22T00:39:55;2.13;;;1.97;;
57615;SDS011;43816;52.054;-9.494;2023-06-22T00:40:06;2.03;;;1.92;;
57615;SDS011;43816;52.054;-9.494;2023-06-22T00:40:17;1.90;;;1.80;;
57615;SDS011;43816;52.054;-9.494;2023-06-22T00:40:31;1.90;;;1.80;;
57615;SDS011;43816;52.054;-9.494;2023-06-22T00:40:42;1.95;;;1.85;;
57615;SDS011;43816;52.054;-9.494;2023-06-22T00:40:52;1.93;;;1.83;;
57615;SDS011;43816;52.054;-9.494;2023-06-22T00:41:02;2.00;;;1.90;;
57615;SDS011;43816;52.054;-9.494;2023-06-22T00:41:13;2.10;;;2.00;;
57615;SDS011;43816;52.054;-9.494;2023-06-22T00:41:23;2.03;;;1.93;;
57615;SDS011;43816;52.054;-9.494;2023-06-22T00:41:33;2.00;;;1.90;;
57615;SDS011;43816;52.054;-9.494;2023-06-22T00:41:44;1.90;;;1.80;;
57615;SDS011;43816;52.054;-9.494;2023-06-22T00:41:54;2.00;;;1.90;;
57615;SDS011;43816;52.054;-9.494;2023-06-22T00:42:04;1.90;;;1.80;;
57615;SDS011;43816;52.054;-9.494;2023-06-22T00:42:15;1.90;;;1.80;;
57615;SDS011;43816;52.054;-9.494;2023-06-22T00:42:25;1.90;;;1.80;;
57615;SDS011;43816;52.054;-9.494;2023-06-22T00:42:36;1.90;;;1.80;;
57615;SDS011;43816;52.054;-9.494;2023-06-22T00:42:46;1.80;;;1.70;;
57615;SDS011;43816;52.054;-9.494;2023-06-22T00:42:57;1.80;;;1.70;;
57615;SDS011;43816;52.054;-9.494;2023-06-22T00:43:07;1.80;;;1.70;;
57615;SDS011;43816;52.054;-9.494;2023-06-22T00:43:18;1.80;;;1.70;;
57615;SDS011;43816;52.054;-9.494;2023-06-22T00:43:28;1.80;;;1.70;;
57615;SDS011;43816;52.054;-9.494;2023-06-22T00:43:38;1.70;;;1.60;;
57615;SDS011;43816;52.054;-9.494;2023-06-22T00:43:49;1.80;;;1.70;;
57615;SDS011;43816;52.054;-9.494;2023-06-22T00:43:59;1.73;;;1.63;;
57615;SDS011;43816;52.054;-9.494;2023-06-22T00:44:09;1.90;;;1.80;;
57615;SDS011;43816;52.054;-9.494;2023-06-22T00:44:19;1.83;;;1.73;;
57615;SDS011;43816;52.054;-9.494;2023-06-22T00:44:30;1.80;;;1.70;;
57615;SDS011;43816;52.054;-9.494;2023-06-22T00:44:40;1.73;;;1.63;;
57615;SDS011;43816;52.054;-9.494;2023-06-22T00:44:50;1.80;;;1.70;;
57615;SDS011;43816;52.054;-9.494;2023-06-22T00:45:01;1.87;;;1.70;;
57615;SDS011;43816;52.054;-9.494;2023-06-22T00:45:11;1.90;;;1.70;;
57615;SDS011;43816;52.054;-9.494;2023-06-22T00:45:24;1.80;;;1.70;;
57615;SDS011;43816;52.054;-9.494;2023-06-22T00:45:36;1.80;;;1.70;;
57615;SDS011;43816;52.054;-9.494;2023-06-22T00:45:46;1.95;;;1.85;;
57615;SDS011;43816;52.054;-9.494;2023-06-22T00:45:57;2.10;;;2.00;;
57615;SDS011;43816;52.054;-9.494;2023-06-22T00:46:07;2.10;;;2.00;;
57615;SDS011;43816;52.054;-9.494;2023-06-22T00:46:18;2.00;;;1.90;;
57615;SDS011;43816;52.054;-9.494;2023-06-22T00:46:28;1.80;;;1.70;;
57615;SDS011;43816;52.054;-9.494;2023-06-22T00:46:39;1.88;;;1.77;;
57615;SDS011;43816;52.054;-9.494;2023-06-22T00:46:49;2.00;;;1.90;;
57615;SDS011;43816;52.054;-9.494;2023-06-22T00:46:59;2.20;;;2.00;;
57615;SDS011;43816;52.054;-9.494;2023-06-22T00:47:10;2.05;;;1.95;;
57615;SDS011;43816;52.054;-9.494;2023-06-22T00:47:22;2.17;;;2.00;;
57615;SDS011;43816;52.054;-9.494;2023-06-22T00:47:36;2.05;;;1.90;;
57615;SDS011;43816;52.054;-9.494;2023-06-22T00:47:47;1.90;;;1.80;;
57615;SDS011;43816;52.054;-9.494;2023-06-22T00:47:58;1.92;;;1.83;;
57615;SDS011;43816;52.054;-9.494;2023-06-22T00:48:09;1.92;;;1.83;;
57615;SDS011;43816;52.054;-9.494;2023-06-22T00:48:19;2.00;;;1.90;;
57615;SDS011;43816;52.054;-9.494;2023-06-22T00:48:30;1.90;;;1.80;;
57615;SDS011;43816;52.054;-9.494;2023-06-22T00:48:40;2.00;;;1.80;;
57615;SDS011;43816;52.054;-9.494;2023-06-22T00:48:51;1.90;;;1.80;;
57615;SDS011;43816;52.054;-9.494;2023-06-22T00:49:02;1.90;;;1.80;;
57615;SDS011;43816;52.054;-9.494;2023-06-22T00:49:12;1.90;;;1.80;;
57615;SDS011;43816;52.054;-9.494;2023-06-22T00:49:23;1.98;;;1.88;;
57615;SDS011;43816;52.054;-9.494;2023-06-22T00:49:33;1.97;;;1.87;;
57615;SDS011;43816;52.054;-9.494;2023-06-22T00:49:44;1.77;;;1.67;;
57615;SDS011;43816;52.054;-9.494;2023-06-22T00:49:54;1.60;;;1.50;;
57615;SDS011;43816;52.054;-9.494;2023-06-22T00:50:06;1.60;;;1.50;;
57615;SDS011;43816;52.054;-9.494;2023-06-22T00:50:18;1.70;;;1.60;;
57615;SDS011;43816;52.054;-9.494;2023-06-22T00:50:31;1.70;;;1.60;;
57615;SDS011;43816;52.054;-9.494;2023-06-22T00:50:43;1.70;;;1.60;;
57615;SDS011;43816;52.054;-9.494;2023-06-22T00:50:53;1.70;;;1.60;;
57615;SDS011;43816;52.054;-9.494;2023-06-22T00:51:04;1.80;;;1.70;;
57615;SDS011;43816;52.054;-9.494;2023-06-22T00:51:14;1.95;;;1.85;;
57615;SDS011;43816;52.054;-9.494;2023-06-22T00:51:25;2.10;;;2.00;;
57615;SDS011;43816;52.054;-9.494;2023-06-22T00:51:36;2.30;;;2.10;;
57615;SDS011;43816;52.054;-9.494;2023-06-22T00:51:48;2.17;;;1.92;;
57615;SDS011;43816;52.054;-9.494;2023-06-22T00:51:58;1.97;;;1.73;;
57615;SDS011;43816;52.054;-9.494;2023-06-22T00:52:09;1.70;;;1.60;;
57615;SDS011;43816;52.054;-9.494;2023-06-22T00:52:21;1.70;;;1.60;;
57615;SDS011;43816;52.054;-9.494;2023-06-22T00:52:33;1.75;;;1.65;;
57615;SDS011;43816;52.054;-9.494;2023-06-22T00:52:43;1.95;;;1.85;;
57615;SDS011;43816;52.054;-9.494;2023-06-22T00:52:57;1.93;;;1.83;;
57615;SDS011;43816;52.054;-9.494;2023-06-22T00:53:10;1.90;;;1.80;;
57615;SDS011;43816;52.054;-9.494;2023-06-22T00:53:20;1.90;;;1.80;;
57615;SDS011;43816;52.054;-9.494;2023-06-22T00:53:31;1.77;;;1.67;;
57615;SDS011;43816;52.054;-9.494;2023-06-22T00:53:41;1.70;;;1.60;;
57615;SDS011;43816;52.054;-9.494;2023-06-22T00:53:52;1.88;;;1.70;;
57615;SDS011;43816;52.054;-9.494;2023-06-22T00:54:02;1.80;;;1.70;;
57615;SDS011;43816;52.054;-9.494;2023-06-22T00:54:13;3.00;;;1.87;;
57615;SDS011;43816;52.054;-9.494;2023-06-22T00:54:24;2.55;;;1.88;;
57615;SDS011;43816;52.054;-9.494;2023-06-22T00:54:35;2.50;;;1.83;;
57615;SDS011;43816;52.054;-9.494;2023-06-22T00:54:49;1.90;;;1.80;;
57615;SDS011;43816;52.054;-9.494;2023-06-22T00:55:01;1.85;;;1.75;;
57615;SDS011;43816;52.054;-9.494;2023-06-22T00:55:12;1.73;;;1.63;;
57615;SDS011;43816;52.054;-9.494;2023-06-22T00:55:23;1.77;;;1.67;;
57615;SDS011;43816;52.054;-9.494;2023-06-22T00:55:38;2.20;;;1.83;;
57615;SDS011;43816;52.054;-9.494;2023-06-22T00:55:52;2.30;;;1.90;;
57615;SDS011;43816;52.054;-9.494;2023-06-22T00:56:02;2.00;;;1.80;;
57615;SDS011;43816;52.054;-9.494;2023-06-22T00:56:13;2.03;;;1.90;;
57615;SDS011;43816;52.054;-9.494;2023-06-22T00:56:23;2.10;;;1.90;;
57615;SDS011;43816;52.054;-9.494;2023-06-22T00:56:34;1.90;;;1.80;;
57615;SDS011;43816;52.054;-9.494;2023-06-22T00:56:44;1.80;;;1.70;;
57615;SDS011;43816;52.054;-9.494;2023-06-22T00:56:55;1.90;;;1.80;;
57615;SDS011;43816;52.054;-9.494;2023-06-22T00:57:05;1.90;;;1.80;;
57615;SDS011;43816;52.054;-9.494;2023-06-22T00:57:16;1.80;;;1.70;;
57615;SDS011;43816;52.054;-9.494;2023-06-22T00:57:28;1.85;;;1.70;;
57615;SDS011;43816;52.054;-9.494;2023-06-22T00:57:39;2.00;;;1.90;;
57615;SDS011;43816;52.054;-9.494;2023-06-22T00:57:50;2.10;;;2.00;;
57615;SDS011;43816;52.054;-9.494;2023-06-22T00:58:00;2.00;;;1.90;;
57615;SDS011;43816;52.054;-9.494;2023-06-22T00:58:11;1.90;;;1.80;;
57615;SDS011;43816;52.054;-9.494;2023-06-22T00:58:22;1.98;;;1.88;;
57615;SDS011;43816;52.054;-9.494;2023-06-22T00:58:32;2.03;;;1.93;;
57615;SDS011;43816;52.054;-9.494;2023-06-22T00:58:43;1.90;;;1.80;;
57615;SDS011;43816;52.054;-9.494;2023-06-22T00:58:53;1.90;;;1.80;;
57615;SDS011;43816;52.054;-9.494;2023-06-22T00:59:03;1.80;;;1.70;;
57615;SDS011;43816;52.054;-9.494;2023-06-22T00:59:13;1.90;;;1.80;;
57615;SDS011;43816;52.054;-9.494;2023-06-22T00:59:24;1.80;;;1.70;;
57615;SDS011;43816;52.054;-9.494;2023-06-22T00:59:36;1.92;;;1.80;;
57615;SDS011;43816;52.054;-9.494;2023-06-22T00:59:47;2.00;;;1.90;;
57615;SDS011;43816;52.054;-9.494;2023-06-22T00:59:58;2.25;;;2.10;;
57615;SDS011;43816;52.054;-9.494;2023-06-22T01:00:08;2.10;;;2.00;;
57615;SDS011;43816;52.054;-9.494;2023-06-22T01:00:19;1.90;;;1.80;;
57615;SDS011;43816;52.054;-9.494;2023-06-22T01:00:30;1.63;;;1.52;;
57615;SDS011;43816;52.054;-9.494;2023-06-22T01:00:41;1.70;;;1.60;;
57615;SDS011;43816;52.054;-9.494;2023-06-22T01:00:52;1.80;;;1.70;;
57615;SDS011;43816;52.054;-9.494;2023-06-22T01:01:02;1.93;;;1.83;;
57615;SDS011;43816;52.054;-9.494;2023-06-22T01:01:13;1.85;;;1.75;;
57615;SDS011;43816;52.054;-9.494;2023-06-22T01:01:23;1.85;;;1.75;;
57615;SDS011;43816;52.054;-9.494;2023-06-22T01:01:34;1.90;;;1.80;;
57615;SDS011;43816;52.054;-9.494;2023-06-22T01:01:44;2.00;;;1.90;;
57615;SDS011;43816;52.054;-9.494;2023-06-22T01:01:54;1.98;;;1.88;;
57615;SDS011;43816;52.054;-9.494;2023-06-22T01:02:05;2.07;;;1.90;;
57615;SDS011;43816;52.054;-9.494;2023-06-22T01:02:15;1.90;;;1.80;;
57615;SDS011;43816;52.054;-9.494;2023-06-22T01:02:25;2.20;;;2.00;;
57615;SDS011;43816;52.054;-9.494;2023-06-22T01:02:36;2.00;;;1.90;;
57615;SDS011;43816;52.054;-9.494;2023-06-22T01:02:46;2.00;;;1.90;;